createdAt,value
2022-09-10T00:01:37.872Z,100838.00
2022-09-10T00:04:16.034Z,100828.00
2022-09-10T00:06:44.822Z,100831.20
2022-09-10T00:09:13.410Z,100824.60
2022-09-10T00:11:41.844Z,100823.00
2022-09-10T00:14:22.617Z,100816.40
2022-09-10T00:16:51.250Z,100818.80
2022-09-10T00:19:19.637Z,100817.20
2022-09-10T00:21:48.517Z,100820.00
2022-09-10T00:24:17.146Z,100811.40
2022-09-10T00:26:45.889Z,100818.00
2022-09-10T00:29:16.076Z,100823.40
2022-09-10T00:31:44.894Z,100821.20
2022-09-10T00:34:14.378Z,100821.60
2022-09-10T00:36:44.175Z,100822.40
2022-09-10T00:39:17.127Z,100821.00
2022-09-10T00:41:48.471Z,100817.60
2022-09-10T00:44:39.699Z,100817.40
2022-09-10T00:47:21.640Z,100812.00
2022-09-10T00:50:03.326Z,100812.20
2022-09-10T00:52:31.444Z,100806.80
2022-09-10T00:54:59.908Z,100801.80
2022-09-10T00:57:29.380Z,100804.60
2022-09-10T01:00:05.555Z,100800.20
2022-09-10T01:02:33.719Z,100792.60
2022-09-10T01:05:04.785Z,100793.40
2022-09-10T01:07:33.852Z,100792.80
2022-09-10T01:10:10.446Z,100790.20
2022-09-10T01:12:58.406Z,100783.40
2022-09-10T01:16:00.139Z,100786.80
2022-09-10T01:18:51.776Z,100787.80
2022-09-10T01:22:12.167Z,100787.80
2022-09-10T01:25:04.795Z,100788.40
2022-09-10T01:27:50.383Z,100789.40
2022-09-10T01:30:24.609Z,100784.60
2022-09-10T01:33:49.735Z,100791.80
2022-09-10T01:36:25.085Z,100788.00
2022-09-10T01:38:53.988Z,100783.40
2022-09-10T01:41:26.145Z,100776.00
2022-09-10T01:43:54.037Z,100772.20
2022-09-10T01:46:55.181Z,100761.60
2022-09-10T01:49:50.374Z,100770.40
2022-09-10T01:52:49.538Z,100767.80
2022-09-10T01:55:54.242Z,100761.40
2022-09-10T01:58:37.954Z,100760.00
2022-09-10T02:01:24.691Z,100756.00
2022-09-10T02:04:00.047Z,100764.00
2022-09-10T02:06:33.197Z,100755.80
2022-09-10T02:09:03.433Z,100756.20
2022-09-10T02:11:44.013Z,100751.80
2022-09-10T02:14:14.397Z,100744.80
2022-09-10T02:16:50.454Z,100744.00
2022-09-10T02:19:18.838Z,100747.00
2022-09-10T02:21:47.486Z,100748.40
2022-09-10T02:24:15.406Z,100745.80
2022-09-10T02:26:45.152Z,100742.20
2022-09-10T02:29:16.638Z,100744.00
2022-09-10T02:31:44.842Z,100747.60
2022-09-10T02:34:12.902Z,100750.40
2022-09-10T02:36:40.765Z,100752.80
2022-09-10T02:39:08.754Z,100750.60
2022-09-10T02:41:37.811Z,100753.60
2022-09-10T02:44:05.896Z,100754.20
2022-09-10T02:46:33.954Z,100755.40
2022-09-10T02:49:01.891Z,100750.60
2022-09-10T02:51:29.684Z,100747.60
2022-09-10T02:53:57.673Z,100746.00
2022-09-10T02:56:25.440Z,100745.20
2022-09-10T02:58:53.215Z,100748.20
2022-09-10T03:01:23.035Z,100745.40
2022-09-10T03:03:58.364Z,100741.80
2022-09-10T03:06:27.657Z,100739.60
2022-09-10T03:08:55.574Z,100739.00
2022-09-10T03:11:24.844Z,100734.00
2022-09-10T03:13:52.575Z,100730.20
2022-09-10T03:16:20.557Z,100728.00
2022-09-10T03:18:48.327Z,100721.60
2022-09-10T03:21:21.251Z,100721.60
2022-09-10T03:23:52.805Z,100720.40
2022-09-10T03:26:23.813Z,100725.40
2022-09-10T03:28:51.650Z,100723.60
2022-09-10T03:31:19.720Z,100725.20
2022-09-10T03:33:47.767Z,100728.60
2022-09-10T03:36:15.704Z,100725.80
2022-09-10T03:38:44.683Z,100719.60
2022-09-10T03:41:12.604Z,100721.00
2022-09-10T03:43:40.644Z,100720.00
2022-09-10T03:46:08.529Z,100726.80
2022-09-10T03:48:36.556Z,100724.80
2022-09-10T03:51:04.680Z,100719.80
2022-09-10T03:53:32.444Z,100714.20
2022-09-10T03:56:00.308Z,100716.60
2022-09-10T03:58:28.891Z,100720.00
2022-09-10T04:00:56.701Z,100722.40
2022-09-10T04:03:24.602Z,100719.80
2022-09-10T04:05:52.436Z,100716.20
2022-09-10T04:08:20.728Z,100720.40
2022-09-10T04:10:48.615Z,100720.40
2022-09-10T04:13:16.411Z,100720.20
2022-09-10T04:15:47.646Z,100720.80
2022-09-10T04:18:15.527Z,100718.80
2022-09-10T04:20:47.826Z,100722.40
2022-09-10T04:23:16.802Z,100720.40
2022-09-10T04:25:44.708Z,100724.80
2022-09-10T04:28:13.895Z,100726.00
2022-09-10T04:30:44.722Z,100725.80
2022-09-10T04:33:13.116Z,100722.00
2022-09-10T04:35:42.286Z,100720.40
2022-09-10T04:38:10.229Z,100717.60
2022-09-10T04:40:38.627Z,100723.40
2022-09-10T04:43:06.432Z,100723.00
2022-09-10T04:45:34.890Z,100720.00
2022-09-10T04:48:06.825Z,100718.20
2022-09-10T04:50:35.781Z,100723.00
2022-09-10T04:53:03.657Z,100718.60
2022-09-10T04:55:33.369Z,100715.60
2022-09-10T04:58:01.298Z,100715.00
2022-09-10T05:00:32.652Z,100710.40
2022-09-10T05:03:00.797Z,100708.60
2022-09-10T05:05:28.690Z,100706.20
2022-09-10T05:07:56.532Z,100706.20
2022-09-10T05:10:24.858Z,100706.20
2022-09-10T05:12:53.383Z,100704.20
2022-09-10T05:15:21.323Z,100704.40
2022-09-10T05:17:50.028Z,100700.60
2022-09-10T05:20:20.813Z,100707.20
2022-09-10T05:22:49.237Z,100708.60
2022-09-10T05:25:17.640Z,100707.40
2022-09-10T05:27:45.541Z,100710.00
2022-09-10T05:30:13.573Z,100719.20
2022-09-10T05:32:41.502Z,100721.40
2022-09-10T05:35:10.343Z,100718.40
2022-09-10T05:37:38.504Z,100718.20
2022-09-10T05:40:09.585Z,100712.80
2022-09-10T05:42:37.808Z,100717.00
2022-09-10T05:45:06.712Z,100716.40
2022-09-10T05:47:34.962Z,100719.40
2022-09-10T05:50:02.944Z,100717.00
2022-09-10T05:52:31.249Z,100723.00
2022-09-10T05:54:59.858Z,100718.60
2022-09-10T05:57:28.217Z,100719.60
2022-09-10T06:00:00.134Z,100719.20
2022-09-10T06:02:28.269Z,100723.40
2022-09-10T06:04:56.119Z,100729.00
2022-09-10T06:07:23.854Z,100730.00
2022-09-10T06:10:06.584Z,100726.40
2022-09-10T06:12:40.599Z,100729.20
2022-09-10T06:15:19.051Z,100729.60
2022-09-10T06:18:13.149Z,100729.20
2022-09-10T06:20:45.271Z,100727.20
2022-09-10T06:23:18.601Z,100726.20
2022-09-10T06:25:48.654Z,100724.00
2022-09-10T06:28:19.924Z,100718.80
2022-09-10T06:30:51.194Z,100720.00
2022-09-10T06:33:21.232Z,100719.40
2022-09-10T06:36:13.479Z,100721.60
2022-09-10T06:38:48.454Z,100727.60
2022-09-10T06:44:06.990Z,100728.40
2022-09-10T06:47:35.904Z,100729.80
2022-09-10T06:49:53.027Z,100734.20
2022-09-10T06:52:38.742Z,100732.80
2022-09-10T06:55:09.655Z,100732.20
2022-09-10T06:57:37.817Z,100726.80
2022-09-10T07:00:06.789Z,100728.80
2022-09-10T07:02:35.953Z,100734.60
2022-09-10T07:05:06.629Z,100733.00
2022-09-10T07:07:44.218Z,100726.80
2022-09-10T07:10:13.174Z,100726.40
2022-09-10T07:12:45.067Z,100725.60
2022-09-10T07:15:14.575Z,100724.60
2022-09-10T07:17:42.540Z,100722.20
2022-09-10T07:20:10.822Z,100732.60
2022-09-10T07:22:41.048Z,100729.20
2022-09-10T07:25:09.568Z,100728.80
2022-09-10T07:27:41.739Z,100717.40
2022-09-10T07:30:27.321Z,100718.00
2022-09-10T07:33:15.250Z,100715.20
2022-09-10T07:35:43.608Z,100716.60
2022-09-10T07:38:23.360Z,100717.80
2022-09-10T07:40:53.689Z,100720.20
2022-09-10T07:43:25.281Z,100715.60
2022-09-10T07:45:55.694Z,100720.40
2022-09-10T07:48:24.951Z,100716.40
2022-09-10T07:50:53.817Z,100718.00
2022-09-10T07:53:21.959Z,100722.80
2022-09-10T07:56:01.352Z,100722.80
2022-09-10T07:58:34.017Z,100720.80
2022-09-10T08:01:14.430Z,100726.00
2022-09-10T08:04:04.991Z,100726.20
2022-09-10T08:06:48.194Z,100724.20
2022-09-10T08:09:17.103Z,100729.60
2022-09-10T08:11:45.821Z,100730.40
2022-09-10T08:14:17.105Z,100729.60
2022-09-10T08:16:45.320Z,100727.20
2022-09-10T08:19:18.418Z,100723.80
2022-09-10T08:21:47.833Z,100729.80
2022-09-10T08:24:15.801Z,100730.00
2022-09-10T08:26:47.210Z,100728.00
2022-09-10T08:29:15.350Z,100730.60
2022-09-10T08:31:46.142Z,100731.20
2022-09-10T08:34:14.442Z,100730.60
2022-09-10T08:36:42.466Z,100726.60
2022-09-10T08:39:20.110Z,100723.60
2022-09-10T08:42:14.493Z,100725.20
2022-09-10T08:44:59.188Z,100727.20
2022-09-10T08:47:51.340Z,100729.00
2022-09-10T08:50:45.034Z,100725.80
2022-09-10T08:53:56.493Z,100726.80
2022-09-10T08:56:25.397Z,100722.00
2022-09-10T08:59:28.673Z,100715.00
2022-09-10T09:02:06.023Z,100715.00
2022-09-10T09:04:59.188Z,100712.40
2022-09-10T09:07:40.608Z,100717.40
2022-09-10T09:10:25.876Z,100716.40
2022-09-10T09:13:45.219Z,100708.00
2022-09-10T09:16:43.678Z,100704.40
2022-09-10T09:19:31.789Z,100700.60
2022-09-10T09:22:21.025Z,100700.00
2022-09-10T09:25:13.942Z,100703.00
2022-09-10T09:27:45.701Z,100705.60
2022-09-10T09:30:39.643Z,100697.20
2022-09-10T09:33:21.313Z,100702.80
2022-09-10T09:36:03.315Z,100705.80
2022-09-10T09:38:49.067Z,100706.00
2022-09-10T09:41:38.093Z,100709.80
2022-09-10T09:44:31.737Z,100710.20
2022-09-10T09:47:00.578Z,100712.00
2022-09-10T09:49:29.717Z,100715.00
2022-09-10T09:51:59.502Z,100714.80
2022-09-10T09:55:03.079Z,100713.80
2022-09-10T09:57:36.451Z,100716.00
2022-09-10T10:00:38.343Z,100711.40
2022-09-10T10:03:26.078Z,100708.60
2022-09-10T10:06:10.037Z,100706.20
2022-09-10T10:08:40.238Z,100704.60
2022-09-10T10:11:12.421Z,100698.00
2022-09-10T10:13:46.450Z,100695.80
2022-09-10T10:16:38.048Z,100687.00
2022-09-10T10:19:36.921Z,100683.40
2022-09-10T10:22:13.796Z,100675.80
2022-09-10T10:24:44.200Z,100673.40
2022-09-10T10:27:32.965Z,100665.20
2022-09-10T10:30:30.368Z,100663.80
2022-09-10T10:33:02.060Z,100660.20
2022-09-10T10:35:51.753Z,100660.20
2022-09-10T10:38:40.685Z,100657.60
2022-09-10T10:41:53.839Z,100660.40
2022-09-10T10:44:56.356Z,100665.00
2022-09-10T10:47:59.850Z,100673.60
2022-09-10T10:51:00.615Z,100678.00
2022-09-10T10:53:48.860Z,100678.40
2022-09-10T10:56:40.805Z,100673.00
2022-09-10T10:59:23.997Z,100667.60
2022-09-10T11:02:01.435Z,100670.20
2022-09-10T11:04:43.501Z,100664.20
2022-09-10T11:07:18.646Z,100658.20
2022-09-10T11:10:01.813Z,100662.40
2022-09-10T11:13:00.841Z,100659.40
2022-09-10T11:15:42.255Z,100659.00
2022-09-10T11:18:33.987Z,100662.60
2022-09-10T11:21:07.610Z,100668.20
2022-09-10T11:23:58.231Z,100672.40
2022-09-10T11:26:57.019Z,100672.60
2022-09-10T11:30:04.378Z,100678.40
2022-09-10T11:32:46.605Z,100681.20
2022-09-10T11:35:22.284Z,100679.80
2022-09-10T11:38:20.687Z,100676.00
2022-09-10T11:41:22.503Z,100677.60
2022-09-10T11:44:08.188Z,100676.40
2022-09-10T11:46:57.089Z,100683.20
2022-09-10T11:50:03.468Z,100682.00
2022-09-10T11:52:35.213Z,100674.00
2022-09-10T11:55:08.597Z,100657.00
2022-09-10T11:57:53.886Z,100653.20
2022-09-10T12:00:24.263Z,100654.20
2022-09-10T12:03:44.438Z,100658.60
2022-09-10T12:06:33.678Z,100648.80
2022-09-10T12:09:22.982Z,100646.60
2022-09-10T12:12:09.562Z,100644.60
2022-09-10T12:14:41.101Z,100639.40
2022-09-10T12:17:24.142Z,100634.60
2022-09-10T12:19:57.474Z,100635.40
2022-09-10T12:22:37.697Z,100638.20
2022-09-10T12:25:31.630Z,100637.60
2022-09-10T12:28:08.277Z,100634.00
2022-09-10T12:30:36.130Z,100642.60
2022-09-10T12:33:13.143Z,100645.80
2022-09-10T12:35:49.021Z,100643.20
2022-09-10T12:38:44.818Z,100643.60
2022-09-10T12:41:32.831Z,100638.00
2022-09-10T12:44:03.552Z,100642.00
2022-09-10T12:46:32.891Z,100648.00
2022-09-10T12:49:05.421Z,100651.60
2022-09-10T12:51:52.669Z,100651.60
2022-09-10T12:54:47.875Z,100648.60
2022-09-10T12:57:32.702Z,100648.60
2022-09-10T13:00:13.559Z,100653.80
2022-09-10T13:03:06.578Z,100653.60
2022-09-10T13:05:57.813Z,100646.40
2022-09-10T13:08:34.036Z,100643.20
2022-09-10T13:11:03.377Z,100644.00
2022-09-10T13:13:49.185Z,100641.60
2022-09-10T13:16:27.440Z,100644.40
2022-09-10T13:19:17.674Z,100640.20
2022-09-10T13:21:45.509Z,100637.20
2022-09-10T13:24:35.961Z,100634.80
2022-09-10T13:27:40.201Z,100644.00
2022-09-10T13:30:21.380Z,100644.60
2022-09-10T13:33:07.694Z,100645.60
2022-09-10T13:35:50.665Z,100645.00
2022-09-10T13:38:51.203Z,100647.00
2022-09-10T13:41:55.811Z,100645.60
2022-09-10T13:44:53.828Z,100637.00
2022-09-10T13:47:39.464Z,100632.20
2022-09-10T13:50:19.642Z,100634.80
2022-09-10T13:52:55.619Z,100634.80
2022-09-10T13:55:31.878Z,100640.20
2022-09-10T13:58:14.977Z,100637.80
2022-09-10T14:00:57.733Z,100638.40
2022-09-10T14:03:34.999Z,100633.60
2022-09-10T14:06:23.280Z,100638.60
2022-09-10T14:08:58.743Z,100638.60
2022-09-10T14:11:41.929Z,100634.80
2022-09-10T14:14:30.227Z,100635.00
2022-09-10T14:17:08.486Z,100633.80
2022-09-10T14:19:50.037Z,100635.40
2022-09-10T14:22:25.488Z,100631.00
2022-09-10T14:25:05.886Z,100632.40
2022-09-10T14:27:39.554Z,100633.80
2022-09-10T14:30:31.010Z,100628.60
2022-09-10T14:33:37.050Z,100621.00
2022-09-10T14:36:24.950Z,100627.40
2022-09-10T14:39:15.366Z,100627.80
2022-09-10T14:41:45.240Z,100628.00
2022-09-10T14:44:22.862Z,100626.20
2022-09-10T14:47:00.445Z,100632.60
2022-09-10T14:49:35.613Z,100628.60
2022-09-10T14:52:05.529Z,100625.80
2022-09-10T14:54:34.980Z,100622.60
2022-09-10T14:57:13.971Z,100614.20
2022-09-10T14:59:44.773Z,100615.80
2022-09-10T15:02:19.883Z,100614.00
2022-09-10T15:04:47.978Z,100616.80
2022-09-10T15:07:16.051Z,100611.40
2022-09-10T15:09:43.893Z,100606.40
2022-09-10T15:12:29.285Z,100606.40
2022-09-10T15:14:58.909Z,100606.00
2022-09-10T15:17:27.349Z,100605.40
2022-09-10T15:19:56.083Z,100607.40
2022-09-10T15:22:31.949Z,100609.60
2022-09-10T15:25:09.595Z,100613.00
2022-09-10T15:27:38.500Z,100611.20
2022-09-10T15:30:07.171Z,100608.40
2022-09-10T15:32:35.119Z,100606.40
2022-09-10T15:35:05.410Z,100606.60
2022-09-10T15:37:33.275Z,100605.20
2022-09-10T15:40:01.381Z,100602.80
2022-09-10T15:42:30.925Z,100599.80
2022-09-10T15:44:58.723Z,100605.40
2022-09-10T15:47:27.673Z,100595.40
2022-09-10T15:49:56.586Z,100600.00
2022-09-10T15:52:24.426Z,100598.80
2022-09-10T15:54:52.635Z,100594.40
2022-09-10T15:57:20.832Z,100598.00
2022-09-10T15:59:49.108Z,100592.00
2022-09-10T16:02:17.455Z,100597.80
2022-09-10T16:04:48.479Z,100594.60
2022-09-10T16:07:16.728Z,100592.00
2022-09-10T16:09:47.437Z,100590.80
2022-09-10T16:12:17.414Z,100595.80
2022-09-10T16:14:47.085Z,100596.00
2022-09-10T16:17:27.580Z,100595.80
2022-09-10T16:20:10.389Z,100593.20
2022-09-10T16:26:26.425Z,100597.20
2022-09-10T16:29:03.449Z,100596.20
2022-09-10T16:31:45.086Z,100587.60
2022-09-10T16:34:22.477Z,100592.60
2022-09-10T16:36:56.443Z,100589.40
2022-09-10T16:39:31.953Z,100587.20
2022-09-10T16:42:08.085Z,100580.60
2022-09-10T16:44:37.183Z,100585.00
2022-09-10T16:47:05.374Z,100587.40
2022-09-10T16:49:35.041Z,100584.40
2022-09-10T16:52:19.758Z,100587.80
2022-09-10T16:54:58.322Z,100578.80
2022-09-10T16:57:40.424Z,100576.20
2022-09-10T17:00:14.179Z,100577.80
2022-09-10T17:02:43.328Z,100576.20
2022-09-10T17:05:11.480Z,100576.60
2022-09-10T17:07:39.455Z,100577.00
2022-09-10T17:10:08.364Z,100576.40
2022-09-10T17:12:36.399Z,100575.00
2022-09-10T17:15:05.317Z,100579.00
2022-09-10T17:17:33.601Z,100584.80
2022-09-10T17:20:02.891Z,100580.20
2022-09-10T17:22:31.175Z,100586.40
2022-09-10T17:24:59.535Z,100586.60
2022-09-10T17:27:33.331Z,100592.40
2022-09-10T17:30:01.442Z,100591.80
2022-09-10T17:32:45.887Z,100594.00
2022-09-10T17:35:14.433Z,100591.40
2022-09-10T17:37:45.607Z,100585.40
2022-09-10T17:40:14.921Z,100581.40
2022-09-10T17:42:47.395Z,100582.80
2022-09-10T17:45:26.088Z,100589.60
2022-09-10T17:47:54.382Z,100591.80
2022-09-10T17:50:22.706Z,100592.80
2022-09-10T17:52:54.317Z,100591.40
2022-09-10T17:55:31.671Z,100584.80
2022-09-10T17:58:04.882Z,100591.80
2022-09-10T18:00:33.979Z,100596.00
2022-09-10T18:03:04.660Z,100590.80
2022-09-10T18:05:37.994Z,100597.00
2022-09-10T18:08:06.738Z,100591.60
2022-09-10T18:10:43.806Z,100597.00
2022-09-10T18:13:13.767Z,100597.00
2022-09-10T18:15:48.674Z,100601.20
2022-09-10T18:18:16.943Z,100600.20
2022-09-10T18:20:46.636Z,100602.40
2022-09-10T18:23:15.263Z,100603.40
2022-09-10T18:25:49.924Z,100599.20
2022-09-10T18:28:18.424Z,100601.80
2022-09-10T18:30:46.355Z,100597.40
2022-09-10T18:33:15.064Z,100596.20
2022-09-10T18:35:43.285Z,100602.20
2022-09-10T18:38:11.684Z,100594.40
2022-09-10T18:40:42.969Z,100593.80
2022-09-10T18:43:11.791Z,100597.20
2022-09-10T18:45:42.842Z,100593.00
2022-09-10T18:48:11.175Z,100594.80
2022-09-10T18:50:40.820Z,100597.60
2022-09-10T18:53:12.936Z,100595.00
2022-09-10T18:55:41.048Z,100599.00
2022-09-10T18:58:10.068Z,100592.00
2022-09-10T19:00:42.923Z,100597.20
2022-09-10T19:03:53.822Z,100603.00
2022-09-10T19:07:24.296Z,100602.40
2022-09-10T19:17:16.268Z,100601.40
2022-09-10T19:19:45.095Z,100600.40
2022-09-10T19:22:18.019Z,100598.60
2022-09-10T19:24:55.627Z,100600.40
2022-09-10T19:27:24.956Z,100596.60
2022-09-10T19:30:00.827Z,100599.00
2022-09-10T19:32:30.813Z,100597.60
2022-09-10T19:34:58.632Z,100599.00
2022-09-10T19:43:58.410Z,100596.40
2022-09-10T19:46:40.447Z,100595.40
2022-09-10T19:49:30.425Z,100594.60
2022-09-10T19:51:58.401Z,100594.00
2022-09-10T19:54:33.227Z,100591.00
2022-09-10T19:57:01.297Z,100593.00
2022-09-10T19:59:32.690Z,100590.80
2022-09-10T20:02:07.570Z,100596.00
2022-09-10T20:04:47.483Z,100598.60
2022-09-10T20:07:26.844Z,100600.20
2022-09-10T20:09:55.925Z,100602.00
2022-09-10T20:12:52.564Z,100596.80
2022-09-10T20:15:20.442Z,100593.20
2022-09-10T20:18:14.685Z,100591.00
2022-09-10T20:24:41.864Z,100590.20
2022-09-10T20:27:13.272Z,100581.80
2022-09-10T20:29:44.220Z,100580.40
2022-09-10T20:32:12.932Z,100580.80
2022-09-10T20:34:40.742Z,100579.20
2022-09-10T20:37:19.083Z,100584.80
2022-09-10T20:39:51.361Z,100581.40
2022-09-10T20:42:33.488Z,100584.80
2022-09-10T20:45:06.331Z,100579.40
2022-09-10T20:47:45.149Z,100576.20
2022-09-10T20:50:18.265Z,100568.00
2022-09-10T20:52:45.991Z,100566.20
2022-09-10T20:55:27.728Z,100569.80
2022-09-10T20:57:56.006Z,100569.40
2022-09-10T21:00:28.539Z,100566.80
2022-09-10T21:02:56.300Z,100567.60
2022-09-10T21:09:18.158Z,100573.40
2022-09-10T21:11:49.588Z,100573.20
2022-09-10T21:14:19.625Z,100573.00
2022-09-10T21:16:49.044Z,100574.60
2022-09-10T21:19:27.824Z,100572.60
2022-09-10T21:21:55.903Z,100572.00
2022-09-10T21:24:26.976Z,100571.80
2022-09-10T21:26:56.275Z,100572.00
2022-09-10T21:29:24.410Z,100570.40
2022-09-10T21:32:09.512Z,100572.20
2022-09-10T21:34:48.631Z,100575.00
2022-09-10T21:37:24.428Z,100575.60
2022-09-10T21:39:53.200Z,100569.80
2022-09-10T21:42:21.104Z,100568.00
2022-09-10T21:44:48.846Z,100567.20
2022-09-10T21:47:16.548Z,100565.40
2022-09-10T21:49:44.340Z,100565.80
2022-09-10T21:52:12.053Z,100561.40
2022-09-10T21:54:39.832Z,100565.80
2022-09-10T21:57:11.512Z,100565.40
2022-09-10T21:59:39.342Z,100556.80
2022-09-10T22:02:07.486Z,100558.20
2022-09-10T22:04:36.071Z,100558.60
2022-09-10T22:07:07.198Z,100557.60
2022-09-10T22:09:34.962Z,100557.60
2022-09-10T22:12:04.250Z,100555.80
2022-09-10T22:14:32.297Z,100554.00
2022-09-10T22:17:05.497Z,100557.40
2022-09-10T22:19:33.253Z,100555.40
2022-09-10T22:22:03.253Z,100549.00
2022-09-10T22:24:31.025Z,100555.40
2022-09-10T22:26:59.380Z,100549.00
2022-09-10T22:29:27.165Z,100544.60
2022-09-10T22:31:55.657Z,100544.80
2022-09-10T22:34:23.502Z,100544.20
2022-09-10T22:36:51.295Z,100536.40
2022-09-10T22:39:21.512Z,100538.20
2022-09-10T22:41:51.316Z,100536.40
2022-09-10T22:44:20.202Z,100534.60
2022-09-10T22:46:48.430Z,100539.20
2022-09-10T22:49:17.147Z,100536.80
2022-09-10T22:51:45.182Z,100537.00
2022-09-10T22:54:13.677Z,100535.40
2022-09-10T22:56:42.209Z,100534.00
2022-09-10T22:59:14.105Z,100529.40
2022-09-10T23:01:44.465Z,100533.40
2022-09-10T23:04:12.378Z,100529.80
2022-09-10T23:06:40.254Z,100533.20
2022-09-10T23:09:15.585Z,100528.80
2022-09-10T23:11:45.859Z,100528.60
2022-09-10T23:14:19.348Z,100525.20
2022-09-10T23:16:50.386Z,100524.80
2022-09-10T23:19:22.927Z,100527.80
2022-09-10T23:21:54.466Z,100526.80
2022-09-10T23:24:25.359Z,100532.40
2022-09-10T23:26:54.040Z,100526.40
2022-09-10T23:29:23.305Z,100532.20
2022-09-10T23:31:55.279Z,100529.00
2022-09-10T23:34:23.685Z,100532.60
2022-09-10T23:36:52.944Z,100527.80
2022-09-10T23:39:23.981Z,100526.20
2022-09-10T23:41:56.885Z,100527.40
2022-09-10T23:44:25.903Z,100527.40
2022-09-10T23:46:54.062Z,100523.00
2022-09-10T23:49:24.177Z,100520.40
2022-09-10T23:51:52.274Z,100522.20
2022-09-10T23:54:20.170Z,100522.60
2022-09-10T23:56:48.170Z,100517.40
2022-09-10T23:59:15.920Z,100523.80
